createdAt,value
2023-03-21T16:24:16.961Z,37.7673
2023-03-21T16:25:18.602Z,39.7142
2023-03-21T16:26:20.247Z,39.2807
2023-03-21T16:27:21.878Z,38.5607
2023-03-21T16:28:23.538Z,38.0052
2023-03-21T16:29:25.206Z,37.6347
2023-03-21T16:30:26.811Z,37.4931
2023-03-21T16:31:28.568Z,37.5131
2023-03-21T16:32:30.109Z,37.4011
2023-03-21T16:33:31.761Z,37.4962
2023-03-21T16:34:33.458Z,37.6378
2023-03-21T16:35:35.087Z,37.8841
2023-03-21T16:36:36.745Z,37.7691
2023-03-21T16:37:38.394Z,37.7363
2023-03-21T16:38:40.062Z,37.5792
2023-03-21T16:39:41.754Z,37.4259
2023-03-21T16:40:43.868Z,37.2834
2023-03-21T16:41:44.959Z,37.1387
2023-03-21T16:42:46.614Z,37.0010
2023-03-21T16:43:48.298Z,36.9380
2023-03-21T16:44:49.938Z,36.8943
2023-03-21T16:45:51.624Z,36.8928
2023-03-21T16:46:53.280Z,36.8850
2023-03-21T16:47:54.908Z,36.8765
2023-03-21T16:48:56.544Z,36.8953
2023-03-21T16:49:58.197Z,36.8943
2023-03-21T16:50:59.857Z,36.9372
2023-03-21T16:52:01.539Z,37.0343
2023-03-21T16:53:03.186Z,37.1172
2023-03-21T16:54:04.827Z,37.1644
2023-03-21T16:55:06.476Z,37.2359
2023-03-21T16:56:08.150Z,37.2561
2023-03-21T16:57:09.817Z,37.3185
2023-03-21T16:58:11.448Z,37.6312
2023-03-21T16:59:13.125Z,37.7592
2023-03-21T17:00:14.782Z,37.8112
2023-03-21T17:01:16.441Z,37.8606
2023-03-21T17:02:18.047Z,37.8642
2023-03-21T17:03:19.804Z,37.8826
2023-03-21T17:04:21.345Z,37.8652
2023-03-21T17:05:23.050Z,37.8501
2023-03-21T17:06:24.679Z,37.8655
2023-03-21T17:07:26.300Z,37.8344
2023-03-21T17:08:27.964Z,37.8209
2023-03-21T17:09:29.615Z,37.8215
2023-03-21T17:10:31.294Z,37.7938
2023-03-21T17:11:32.898Z,37.8020
2023-03-21T17:12:34.546Z,37.8236
2023-03-21T17:13:36.213Z,37.8497
2023-03-21T17:14:37.873Z,37.8682
2023-03-21T17:15:39.541Z,37.8872
2023-03-21T17:16:41.198Z,37.9541
2023-03-21T17:17:42.802Z,37.9807
2023-03-21T17:18:44.460Z,37.9956
2023-03-21T17:19:47.105Z,37.9758
2023-03-21T17:20:47.742Z,37.9647
2023-03-21T17:21:49.402Z,37.9697
2023-03-21T17:22:51.051Z,37.9488
2023-03-21T17:23:52.719Z,37.9494
2023-03-21T17:24:54.359Z,37.9437
2023-03-21T17:25:56.065Z,37.9271
2023-03-21T17:26:57.640Z,37.9404
2023-03-21T17:27:59.322Z,37.9427
2023-03-21T17:29:00.979Z,37.9741
2023-03-21T17:30:02.655Z,38.0026
2023-03-21T17:31:04.291Z,37.9873
2023-03-21T17:32:05.913Z,37.9863
2023-03-21T17:33:07.560Z,37.9880
2023-03-21T17:34:09.242Z,38.0011
2023-03-21T17:35:10.866Z,38.0106
2023-03-21T17:36:12.556Z,37.9775
2023-03-21T17:37:14.176Z,37.9836
2023-03-21T17:38:15.815Z,38.0008
2023-03-21T17:39:17.481Z,38.0108
2023-03-21T17:40:19.244Z,38.0074
2023-03-21T17:41:20.791Z,38.0003
2023-03-21T17:42:22.429Z,37.9750
2023-03-21T17:43:24.076Z,37.9646
2023-03-21T17:44:25.762Z,38.0010
2023-03-21T17:45:27.416Z,38.0186
2023-03-21T17:46:29.208Z,38.0153
2023-03-21T17:47:30.710Z,37.9810
2023-03-21T17:48:32.402Z,37.9324
2023-03-21T17:49:34.014Z,37.8986
2023-03-21T17:50:35.674Z,37.8639
2023-03-21T17:51:37.339Z,37.8242
2023-03-21T17:52:38.987Z,37.8119
2023-03-21T17:53:40.621Z,37.7690
2023-03-21T17:54:43.352Z,37.7453
2023-03-21T17:55:43.932Z,37.7313
2023-03-21T17:56:45.583Z,37.7146
2023-03-21T17:57:47.471Z,37.6952
2023-03-21T17:58:48.901Z,37.6462
2023-03-21T17:59:50.575Z,37.6502
2023-03-21T18:00:52.231Z,37.6308
2023-03-21T18:01:53.959Z,37.6099
2023-03-21T18:02:55.458Z,37.5899
2023-03-21T18:03:57.122Z,37.5914
2023-03-21T18:04:58.800Z,37.5661
2023-03-21T18:06:00.455Z,37.5555
2023-03-21T18:07:02.102Z,37.5381
2023-03-21T18:08:10.827Z,37.5357
2023-03-21T18:09:05.376Z,37.5170
2023-03-21T18:10:07.033Z,37.5336
2023-03-21T18:11:08.717Z,37.5452
2023-03-21T18:12:10.388Z,37.5354
2023-03-21T18:13:12.015Z,37.5363
2023-03-21T18:14:18.008Z,37.5427
2023-03-21T18:15:17.132Z,37.5542
2023-03-21T18:16:17.029Z,37.5491
2023-03-21T18:17:18.648Z,37.5819
2023-03-21T18:18:20.266Z,37.5766
2023-03-21T18:19:21.933Z,37.5871
2023-03-21T18:20:23.773Z,37.5935
2023-03-21T18:21:26.509Z,37.6211
2023-03-21T18:22:26.895Z,37.6230
2023-03-21T18:23:28.561Z,37.6414
2023-03-21T18:24:30.202Z,37.6541
2023-03-21T18:25:31.848Z,37.6635
2023-03-21T18:26:33.536Z,37.6602
2023-03-21T18:27:35.964Z,37.6671
2023-03-21T18:28:36.793Z,37.6823
2023-03-21T18:30:22.906Z,37.7005
2023-03-21T18:31:00.422Z,37.7092
2023-03-21T18:31:45.272Z,37.7209
2023-03-21T18:32:43.426Z,37.6954
2023-03-21T18:33:45.152Z,37.7136
2023-03-21T18:34:47.469Z,37.7325
2023-03-21T18:35:48.372Z,37.7242
2023-03-21T18:36:50.047Z,37.7652
2023-03-21T18:37:51.722Z,37.7769
2023-03-21T18:38:53.352Z,37.7826
2023-03-21T18:39:55.140Z,37.7689
2023-03-21T18:40:56.659Z,37.7580
2023-03-21T18:41:58.445Z,37.7671
2023-03-21T18:43:51.650Z,37.7756
2023-03-21T18:44:09.132Z,37.7978
2023-03-21T18:45:03.301Z,37.8403
2023-03-21T18:46:04.914Z,37.9359
2023-03-21T18:47:06.851Z,37.9603
2023-03-21T18:48:08.272Z,37.9618
2023-03-21T18:49:52.078Z,37.9576
2023-03-21T18:50:14.412Z,37.9559
2023-03-21T18:51:13.187Z,37.9546
2023-03-21T18:52:14.796Z,37.9426
2023-03-21T18:53:16.476Z,37.9221
2023-03-21T18:54:18.138Z,37.9257
2023-03-21T18:55:19.795Z,37.8968
2023-03-21T18:57:19.625Z,37.8727
2023-03-21T18:57:39.166Z,37.8812
2023-03-21T18:58:24.729Z,37.8671
2023-03-21T18:59:26.386Z,37.8443
2023-03-21T19:00:28.123Z,37.8380
2023-03-21T19:01:29.720Z,37.8294
2023-03-21T19:02:31.320Z,37.7984
2023-03-21T19:03:37.102Z,37.7979
2023-03-21T19:04:34.722Z,37.8028
2023-03-21T19:05:36.283Z,37.8147
2023-03-21T19:06:37.936Z,37.8125
2023-03-21T19:07:39.584Z,37.7860
2023-03-21T19:08:41.967Z,37.7759
2023-03-21T19:10:05.400Z,37.7927
2023-03-21T19:10:44.575Z,37.7670
2023-03-21T19:11:46.248Z,37.7507
2023-03-21T19:12:47.881Z,37.7425
2023-03-21T19:13:49.557Z,37.7202
2023-03-21T19:14:51.170Z,37.7106
2023-03-21T19:15:54.073Z,37.7078
2023-03-21T19:17:47.125Z,37.7001
2023-03-21T19:18:57.863Z,37.6899
2023-03-21T19:19:59.938Z,37.6775
2023-03-21T19:21:01.105Z,37.6721
2023-03-21T19:22:02.790Z,37.6824
2023-03-21T19:23:05.403Z,37.6655
2023-03-21T19:24:26.396Z,37.6588
2023-03-21T19:25:07.705Z,37.6448
2023-03-21T19:26:09.362Z,37.6505
2023-03-21T19:27:11.007Z,37.6592
2023-03-21T19:28:12.662Z,37.6486
2023-03-21T19:29:14.948Z,37.6255
2023-03-21T19:30:16.113Z,37.6056
2023-03-21T19:31:17.609Z,37.6275
2023-03-21T19:32:19.276Z,37.6475
2023-03-21T19:33:20.933Z,37.6097
2023-03-21T19:34:22.603Z,37.6100
2023-03-21T19:35:24.272Z,37.6225
2023-03-21T19:36:26.347Z,37.6123
2023-03-21T19:37:27.577Z,37.5937
2023-03-21T19:38:29.184Z,37.5879
2023-03-21T19:39:30.901Z,37.5825
2023-03-21T19:40:32.511Z,37.5640
2023-03-21T19:41:34.214Z,37.5558
2023-03-21T19:42:35.842Z,37.5619
2023-03-21T19:43:37.517Z,37.5438
2023-03-21T19:44:39.165Z,37.5548
2023-03-21T19:45:41.545Z,37.5523
2023-03-21T19:46:42.479Z,37.5502
2023-03-21T19:47:44.125Z,37.5356
2023-03-21T19:48:45.815Z,37.5271
2023-03-21T19:50:37.399Z,37.5266
2023-03-21T19:51:20.136Z,37.5168
2023-03-21T19:51:50.757Z,37.5155
2023-03-21T19:52:52.556Z,37.5109
2023-03-21T19:53:54.066Z,37.5082
2023-03-21T19:54:55.739Z,37.5025
2023-03-21T19:56:01.830Z,37.4919
2023-03-21T19:56:59.700Z,37.4899
2023-03-21T19:58:00.651Z,37.4860
2023-03-21T19:59:02.297Z,37.4629
2023-03-21T20:00:04.012Z,37.4646
2023-03-21T20:01:05.631Z,37.4667
2023-03-21T20:02:33.321Z,37.4653
2023-03-21T20:03:09.053Z,37.4864
2023-03-21T20:04:10.638Z,37.4577
2023-03-21T20:05:12.278Z,37.4410
2023-03-21T20:06:13.881Z,37.4654
2023-03-21T20:07:15.561Z,37.4454
2023-03-21T20:08:17.782Z,37.4359
2023-03-21T20:10:20.559Z,37.4303
2023-03-21T20:11:22.158Z,37.4122
2023-03-21T20:12:23.825Z,37.4217
2023-03-21T20:13:25.467Z,37.4211
2023-03-21T20:14:27.115Z,37.4237
2023-03-21T20:15:30.603Z,37.3872
2023-03-21T20:16:34.725Z,37.3711
2023-03-21T20:17:32.109Z,37.3904
2023-03-21T20:18:33.770Z,37.3915
2023-03-21T20:19:35.428Z,37.3662
2023-03-21T20:20:37.307Z,37.4032
2023-03-21T20:21:47.643Z,37.3870
2023-03-21T20:23:42.039Z,37.3536
2023-03-21T20:24:43.747Z,37.3485
2023-03-21T20:25:45.390Z,37.3236
2023-03-21T20:26:47.117Z,37.3052
2023-03-21T20:28:06.076Z,37.2894
2023-03-21T20:29:00.167Z,37.2668
2023-03-21T20:30:09.489Z,37.2508
2023-03-21T20:30:53.849Z,37.2319
2023-03-21T20:31:55.356Z,37.2221
2023-03-21T20:32:57.060Z,37.2023
2023-03-21T20:33:58.680Z,37.1730
2023-03-21T20:35:13.778Z,37.1725
2023-03-21T20:37:05.487Z,37.1580
2023-03-21T20:38:05.317Z,37.1420
2023-03-21T20:39:06.974Z,37.1373
2023-03-21T20:40:08.621Z,37.1392
2023-03-21T20:41:10.269Z,37.1388
2023-03-21T20:42:11.902Z,37.1206
2023-03-21T20:43:54.331Z,37.1076
2023-03-21T20:45:16.916Z,37.1110
2023-03-21T20:46:18.629Z,37.1083
2023-03-21T20:47:20.205Z,37.1165
2023-03-21T20:48:21.955Z,37.0985
2023-03-21T20:49:23.667Z,37.1513
2023-03-21T20:50:26.011Z,37.1676
2023-03-21T20:53:30.135Z,37.2343
2023-03-21T20:54:31.799Z,37.2238
2023-03-21T20:55:33.463Z,37.2178
2023-03-21T20:56:35.136Z,37.2230
2023-03-21T20:57:38.780Z,37.2350
2023-03-21T20:58:59.309Z,37.2307
2023-03-21T20:59:40.048Z,37.2757
2023-03-21T21:00:41.695Z,37.2260
2023-03-21T21:01:43.540Z,37.2597
2023-03-21T21:02:45.063Z,37.2385
2023-03-21T21:03:46.701Z,37.2313
2023-03-21T21:05:17.311Z,37.2257
2023-03-21T21:05:50.075Z,37.2134
2023-03-21T21:06:51.672Z,37.2257
2023-03-21T21:07:53.312Z,37.2451
2023-03-21T21:08:54.958Z,37.2501
2023-03-21T21:09:57.152Z,37.2631
2023-03-21T21:11:49.698Z,37.2975
2023-03-21T21:12:06.873Z,37.2902
2023-03-21T21:13:01.593Z,37.3491
2023-03-21T21:14:05.087Z,37.3648
2023-03-21T21:15:05.025Z,37.3705
2023-03-21T21:16:06.600Z,37.4025
2023-03-21T21:17:24.568Z,37.4423
2023-03-21T21:18:09.902Z,37.4585
2023-03-21T21:19:11.520Z,37.4776
2023-03-21T21:20:13.176Z,37.4796
2023-03-21T21:21:14.826Z,37.5189
2023-03-21T21:22:16.489Z,37.5441
2023-03-21T21:23:18.263Z,37.5736
2023-03-21T21:24:19.779Z,37.5822
2023-03-21T21:25:21.440Z,37.5820
2023-03-21T21:26:23.139Z,37.5930
2023-03-21T21:27:24.790Z,37.6114
2023-03-21T21:28:26.413Z,37.6385
2023-03-21T21:29:28.081Z,37.6312
2023-03-21T21:30:29.738Z,37.6613
2023-03-21T21:31:31.419Z,37.6782
2023-03-21T21:32:33.096Z,37.6764
2023-03-21T21:33:34.738Z,37.7008
2023-03-21T21:34:36.369Z,37.7178
2023-03-21T21:35:39.087Z,37.7221
2023-03-21T21:36:39.698Z,37.7410
2023-03-21T21:37:41.361Z,37.7590
2023-03-21T21:38:42.985Z,37.7721
2023-03-21T21:39:44.645Z,37.7565
2023-03-21T21:40:46.305Z,37.7598
2023-03-21T21:41:47.968Z,37.7789
2023-03-21T21:42:49.651Z,37.8061
2023-03-21T21:43:51.279Z,37.8067
2023-03-21T21:44:53.456Z,37.8288
2023-03-21T21:45:54.561Z,37.8153
2023-03-21T21:46:56.240Z,37.8020
2023-03-21T21:47:59.611Z,37.8093
2023-03-21T21:48:59.550Z,37.7947
2023-03-21T21:50:02.450Z,37.8123
2023-03-21T21:51:02.864Z,37.8373
2023-03-21T21:52:04.474Z,37.8648
2023-03-21T21:53:06.181Z,37.8359
2023-03-21T21:54:07.826Z,37.8298
2023-03-21T21:55:09.481Z,37.8567
